createdAt,value
2023-01-17T00:02:18.378Z,84.94
2023-01-17T00:05:05.601Z,83.56
2023-01-17T00:07:53.131Z,82.55
2023-01-17T00:10:26.294Z,81.74
2023-01-17T00:12:55.964Z,83.10
2023-01-17T00:15:24.302Z,82.52
2023-01-17T00:17:52.435Z,83.22
2023-01-17T00:20:42.594Z,83.04
2023-01-17T00:23:33.180Z,81.61
2023-01-17T00:26:05.504Z,82.61
2023-01-17T00:28:37.704Z,82.79
2023-01-17T00:31:05.331Z,81.33
2023-01-17T00:33:32.686Z,80.54
2023-01-17T00:36:00.698Z,80.61
2023-01-17T00:38:30.181Z,80.39
2023-01-17T00:41:05.756Z,79.44
2023-01-17T00:43:50.948Z,78.77
2023-01-17T00:46:36.667Z,79.67
2023-01-17T00:49:22.777Z,78.75
2023-01-17T00:52:08.009Z,79.68
2023-01-17T00:54:53.582Z,79.57
2023-01-17T00:57:38.670Z,79.29
2023-01-17T01:00:25.009Z,79.20
2023-01-17T01:03:10.908Z,78.65
2023-01-17T01:05:56.785Z,79.38
2023-01-17T01:08:44.987Z,79.17
2023-01-17T01:11:33.255Z,78.93
2023-01-17T01:14:19.108Z,80.14
2023-01-17T01:17:04.486Z,79.91
2023-01-17T01:19:49.822Z,80.63
2023-01-17T01:22:35.035Z,81.23
2023-01-17T01:25:20.432Z,80.41
2023-01-17T01:28:05.510Z,81.94
2023-01-17T01:30:50.910Z,81.16
2023-01-17T01:33:20.736Z,81.65
2023-01-17T01:35:55.129Z,82.02
2023-01-17T01:38:23.566Z,81.42
2023-01-17T01:40:53.125Z,82.65
2023-01-17T01:43:40.600Z,82.13
2023-01-17T01:46:11.347Z,81.77
2023-01-17T01:49:17.269Z,81.75
2023-01-17T01:52:05.757Z,82.39
2023-01-17T01:54:44.403Z,82.38
2023-01-17T01:57:13.981Z,80.80
2023-01-17T01:59:45.986Z,81.35
2023-01-17T02:02:13.662Z,80.34
2023-01-17T02:04:40.933Z,80.43
2023-01-17T02:07:12.440Z,81.33
2023-01-17T02:09:39.045Z,80.07
2023-01-17T02:12:08.163Z,79.19
2023-01-17T02:14:34.592Z,79.91
2023-01-17T02:17:12.109Z,79.31
2023-01-17T02:20:12.286Z,80.07
2023-01-17T02:22:50.843Z,77.84
2023-01-17T02:25:35.167Z,75.83
2023-01-17T02:28:24.894Z,76.97
2023-01-17T02:31:02.560Z,76.53
2023-01-17T02:33:47.709Z,74.64
2023-01-17T02:36:25.850Z,73.13
2023-01-17T02:39:03.235Z,74.23
2023-01-17T02:41:35.502Z,73.07
2023-01-17T02:44:03.525Z,72.03
2023-01-17T02:46:30.866Z,72.15
2023-01-17T02:48:58.230Z,71.77
2023-01-17T02:51:38.812Z,73.44
2023-01-17T02:54:23.377Z,73.61
2023-01-17T02:57:13.555Z,71.31
2023-01-17T02:59:53.934Z,71.23
2023-01-17T03:02:44.952Z,71.85
2023-01-17T03:05:26.848Z,72.13
2023-01-17T03:07:54.957Z,72.16
2023-01-17T03:10:22.315Z,72.44
2023-01-17T03:12:48.779Z,72.37
2023-01-17T03:15:17.424Z,70.80
2023-01-17T03:17:50.503Z,71.14
2023-01-17T03:20:17.408Z,71.82
2023-01-17T03:22:44.245Z,71.44
2023-01-17T03:25:10.787Z,72.05
2023-01-17T03:27:37.508Z,73.12
2023-01-17T03:30:04.825Z,72.73
2023-01-17T03:32:31.678Z,71.07
2023-01-17T03:34:58.535Z,71.95
2023-01-17T03:37:25.132Z,71.25
2023-01-17T03:39:51.630Z,71.97
2023-01-17T03:42:18.488Z,72.74
2023-01-17T03:44:45.168Z,72.83
2023-01-17T03:47:12.442Z,72.82
2023-01-17T03:49:39.920Z,73.15
2023-01-17T03:52:07.627Z,73.53
2023-01-17T03:54:34.391Z,72.27
2023-01-17T03:57:02.050Z,72.41
2023-01-17T03:59:28.655Z,73.61
2023-01-17T04:01:55.417Z,74.18
2023-01-17T04:04:22.713Z,74.57
2023-01-17T04:06:49.389Z,74.09
2023-01-17T04:09:16.183Z,73.53
2023-01-17T04:11:42.639Z,74.01
2023-01-17T04:14:09.193Z,76.14
2023-01-17T04:16:37.246Z,75.12
2023-01-17T04:19:03.715Z,76.10
2023-01-17T04:21:30.276Z,76.61
2023-01-17T04:23:57.628Z,77.95
2023-01-17T04:26:24.971Z,78.03
2023-01-17T04:28:52.130Z,77.32
2023-01-17T04:31:18.677Z,78.45
2023-01-17T04:33:45.985Z,77.04
2023-01-17T04:36:12.559Z,78.52
2023-01-17T04:38:39.259Z,78.83
2023-01-17T04:41:06.044Z,78.00
2023-01-17T04:43:32.923Z,78.74
2023-01-17T04:45:59.725Z,79.23
2023-01-17T04:48:27.676Z,82.18
2023-01-17T04:51:01.644Z,80.69
2023-01-17T04:53:28.368Z,82.08
2023-01-17T04:55:56.342Z,80.21
2023-01-17T04:58:23.400Z,78.88
2023-01-17T05:00:51.607Z,80.17
2023-01-17T05:03:20.211Z,80.46
2023-01-17T05:05:47.290Z,77.92
2023-01-17T05:08:14.627Z,78.67
2023-01-17T05:10:41.100Z,79.93
2023-01-17T05:13:09.198Z,80.00
2023-01-17T05:15:36.523Z,78.51
2023-01-17T05:18:08.344Z,78.05
2023-01-17T05:20:35.300Z,79.25
2023-01-17T05:23:02.448Z,78.93
2023-01-17T05:25:30.729Z,79.23
2023-01-17T05:28:01.701Z,78.78
2023-01-17T05:30:31.194Z,80.94
2023-01-17T05:32:58.794Z,79.99
2023-01-17T05:35:28.634Z,79.53
2023-01-17T05:37:56.354Z,80.05
2023-01-17T05:40:24.536Z,80.46
2023-01-17T05:42:53.477Z,81.98
2023-01-17T05:45:22.015Z,82.65
2023-01-17T05:47:51.327Z,83.45
2023-01-17T05:50:38.769Z,81.99
2023-01-17T05:53:08.168Z,83.48
2023-01-17T05:55:36.219Z,83.82
2023-01-17T05:58:05.014Z,84.52
2023-01-17T06:00:32.373Z,83.67
2023-01-17T06:03:00.123Z,85.05
2023-01-17T06:05:29.431Z,84.46
2023-01-17T06:07:56.959Z,84.16
2023-01-17T06:10:24.248Z,84.60
2023-01-17T06:13:00.693Z,84.51
2023-01-17T06:15:27.982Z,85.07
2023-01-17T06:17:56.316Z,85.37
2023-01-17T06:20:22.966Z,85.05
2023-01-17T06:22:50.403Z,84.59
2023-01-17T06:25:16.858Z,82.70
2023-01-17T06:27:43.684Z,82.69
2023-01-17T06:30:10.749Z,81.77
2023-01-17T06:32:38.415Z,83.25
2023-01-17T06:35:05.208Z,84.04
2023-01-17T06:37:33.186Z,84.66
2023-01-17T06:39:59.919Z,84.02
2023-01-17T06:42:26.323Z,84.53
2023-01-17T06:44:52.945Z,84.11
2023-01-17T06:47:21.266Z,85.10
2023-01-17T06:49:47.904Z,84.86
2023-01-17T06:52:14.424Z,85.55
2023-01-17T06:54:41.555Z,86.40
2023-01-17T06:57:08.117Z,85.82
2023-01-17T06:59:34.813Z,85.32
2023-01-17T07:02:01.540Z,85.84
2023-01-17T07:04:30.738Z,85.72
2023-01-17T07:06:57.450Z,85.82
2023-01-17T07:09:24.362Z,86.41
2023-01-17T07:11:52.370Z,86.29
2023-01-17T07:14:18.880Z,85.52
2023-01-17T07:16:46.094Z,86.50
2023-01-17T07:19:13.392Z,85.78
2023-01-17T07:21:40.779Z,85.74
2023-01-17T07:24:09.069Z,85.90
2023-01-17T07:26:37.653Z,87.28
2023-01-17T07:29:05.069Z,87.12
2023-01-17T07:31:36.705Z,87.24
2023-01-17T07:34:04.144Z,86.76
2023-01-17T07:36:30.756Z,87.29
2023-01-17T07:38:57.498Z,86.91
2023-01-17T07:41:24.112Z,86.57
2023-01-17T07:43:50.806Z,86.51
2023-01-17T07:46:18.179Z,86.63
2023-01-17T07:48:44.984Z,86.56
2023-01-17T07:51:12.275Z,84.91
2023-01-17T07:53:38.926Z,85.74
2023-01-17T07:56:07.433Z,86.07
2023-01-17T07:58:35.199Z,86.10
2023-01-17T08:01:04.292Z,85.31
2023-01-17T08:03:34.966Z,86.23
2023-01-17T08:06:02.781Z,84.77
2023-01-17T08:08:29.460Z,84.61
2023-01-17T08:10:55.939Z,84.59
2023-01-17T08:13:22.898Z,85.51
2023-01-17T08:15:50.541Z,85.38
2023-01-17T08:18:18.211Z,85.83
2023-01-17T08:20:45.252Z,85.22
2023-01-17T08:23:12.333Z,86.08
2023-01-17T08:25:40.246Z,85.37
2023-01-17T08:28:06.965Z,85.95
2023-01-17T08:30:34.888Z,86.20
2023-01-17T08:33:01.824Z,86.32
2023-01-17T08:35:28.937Z,85.78
2023-01-17T08:37:57.516Z,85.66
2023-01-17T08:40:24.734Z,85.89
2023-01-17T08:42:56.843Z,85.36
2023-01-17T08:45:24.070Z,86.38
2023-01-17T08:47:51.329Z,86.56
2023-01-17T08:50:20.975Z,87.85
2023-01-17T08:52:49.494Z,87.83
2023-01-17T08:55:16.763Z,87.02
2023-01-17T08:57:43.770Z,87.73
2023-01-17T09:00:11.246Z,87.64
2023-01-17T09:02:38.308Z,88.77
2023-01-17T09:05:05.593Z,89.13
2023-01-17T09:07:32.953Z,88.54
2023-01-17T09:09:59.533Z,88.62
2023-01-17T09:12:26.547Z,87.90
2023-01-17T09:14:53.908Z,87.96
2023-01-17T09:17:20.819Z,88.65
2023-01-17T09:19:48.905Z,86.91
2023-01-17T09:22:15.767Z,84.75
2023-01-17T09:24:42.550Z,85.33
2023-01-17T09:27:09.373Z,86.01
2023-01-17T09:29:35.988Z,85.60
2023-01-17T09:32:02.617Z,84.36
2023-01-17T09:34:30.352Z,85.60
2023-01-17T09:36:57.428Z,84.64
2023-01-17T09:39:24.198Z,86.13
2023-01-17T09:42:00.126Z,86.34
2023-01-17T09:44:41.184Z,86.29
2023-01-17T09:47:26.962Z,86.69
2023-01-17T09:49:59.452Z,85.66
2023-01-17T09:52:27.942Z,85.17
2023-01-17T09:54:54.801Z,86.28
2023-01-17T09:58:00.232Z,86.58
2023-01-17T10:00:38.406Z,87.27
2023-01-17T10:03:44.289Z,86.34
2023-01-17T10:06:32.367Z,85.48
2023-01-17T10:09:20.310Z,82.70
2023-01-17T10:11:52.877Z,81.58
2023-01-17T10:14:41.357Z,81.44
2023-01-17T10:17:23.957Z,80.59
2023-01-17T10:20:12.350Z,78.82
2023-01-17T10:22:51.488Z,72.33
2023-01-17T10:25:48.437Z,71.85
2023-01-17T10:28:30.158Z,72.73
2023-01-17T10:31:22.680Z,72.37
2023-01-17T10:34:18.815Z,73.87
2023-01-17T10:36:50.115Z,70.39
2023-01-17T10:39:28.332Z,70.31
2023-01-17T10:42:06.761Z,72.88
2023-01-17T10:44:41.056Z,74.68
2023-01-17T10:47:10.935Z,74.43
2023-01-17T10:49:41.834Z,73.02
2023-01-17T10:52:30.419Z,65.63
2023-01-17T10:55:24.003Z,69.69
2023-01-17T10:57:51.207Z,67.94
2023-01-17T11:00:30.685Z,69.14
2023-01-17T11:03:00.144Z,68.87
2023-01-17T11:05:29.519Z,67.51
2023-01-17T11:08:09.838Z,70.85
2023-01-17T11:10:41.983Z,63.64
2023-01-17T11:13:30.627Z,65.21
2023-01-17T11:16:02.102Z,67.77
2023-01-17T11:18:35.392Z,66.98
2023-01-17T11:21:17.016Z,68.55
2023-01-17T11:23:49.217Z,67.74
2023-01-17T11:26:36.187Z,65.65
2023-01-17T11:29:27.518Z,63.19
2023-01-17T11:31:56.128Z,60.93
2023-01-17T11:34:29.366Z,61.07
2023-01-17T11:37:09.365Z,55.43
2023-01-17T11:39:36.106Z,59.72
2023-01-17T11:42:06.377Z,60.62
2023-01-17T11:44:35.691Z,60.80
2023-01-17T11:47:11.998Z,62.49
2023-01-17T11:49:40.531Z,62.33
2023-01-17T11:52:09.407Z,56.99
2023-01-17T11:54:39.495Z,56.61
2023-01-17T11:57:23.930Z,54.07
2023-01-17T12:00:19.501Z,48.39
2023-01-17T12:03:06.070Z,52.04
2023-01-17T12:05:48.420Z,50.07
2023-01-17T12:08:42.471Z,50.30
2023-01-17T12:12:13.811Z,50.06
2023-01-17T12:14:52.887Z,49.09
2023-01-17T12:17:38.073Z,48.73
2023-01-17T12:20:16.674Z,47.72
2023-01-17T12:23:13.859Z,44.29
2023-01-17T12:26:23.875Z,47.43
2023-01-17T12:29:11.840Z,52.46
2023-01-17T12:31:52.638Z,47.89
2023-01-17T12:34:28.112Z,45.81
2023-01-17T12:37:19.136Z,40.59
2023-01-17T12:39:56.337Z,42.00
2023-01-17T12:42:30.369Z,42.26
2023-01-17T12:45:05.725Z,44.77
2023-01-17T12:47:37.665Z,46.40
2023-01-17T12:50:18.845Z,48.56
2023-01-17T12:52:54.209Z,48.81
2023-01-17T12:55:34.579Z,50.37
2023-01-17T12:58:05.940Z,48.04
2023-01-17T13:00:40.111Z,49.63
2023-01-17T13:03:20.878Z,51.52
2023-01-17T13:05:48.507Z,50.87
2023-01-17T13:08:38.743Z,51.05
2023-01-17T13:11:14.552Z,50.52
2023-01-17T13:13:41.893Z,52.01
2023-01-17T13:16:14.776Z,54.72
2023-01-17T13:18:49.211Z,53.17
2023-01-17T13:21:32.384Z,52.38
2023-01-17T13:24:08.522Z,54.05
2023-01-17T13:26:50.338Z,55.51
2023-01-17T13:29:19.512Z,56.15
2023-01-17T13:31:50.686Z,58.24
2023-01-17T13:34:50.767Z,60.87
2023-01-17T13:37:41.407Z,60.33
2023-01-17T13:40:24.430Z,62.00
2023-01-17T13:42:56.067Z,63.47
2023-01-17T13:45:27.294Z,66.80
2023-01-17T13:48:09.673Z,63.10
2023-01-17T13:50:36.100Z,64.42
2023-01-17T13:53:31.283Z,65.59
2023-01-17T13:56:19.396Z,66.72
2023-01-17T13:58:50.162Z,67.09
2023-01-17T14:01:22.721Z,66.56
2023-01-17T14:03:49.953Z,67.36
2023-01-17T14:06:35.503Z,68.00
2023-01-17T14:09:20.785Z,66.21
2023-01-17T14:12:08.504Z,65.14
2023-01-17T14:14:41.571Z,65.38
2023-01-17T14:17:23.056Z,70.07
2023-01-17T14:19:55.800Z,67.26
2023-01-17T14:22:28.422Z,67.78
2023-01-17T14:24:57.093Z,68.19
2023-01-17T14:27:25.792Z,69.07
2023-01-17T14:29:58.925Z,68.26
2023-01-17T14:32:35.378Z,70.19
2023-01-17T14:35:03.020Z,69.88
2023-01-17T14:37:35.846Z,70.33
2023-01-17T14:40:02.292Z,67.45
2023-01-17T14:42:31.226Z,68.26
2023-01-17T14:45:05.557Z,69.08
2023-01-17T14:47:37.915Z,70.86
2023-01-17T14:50:21.907Z,71.34
2023-01-17T14:53:07.274Z,72.30
2023-01-17T14:55:34.250Z,70.75
2023-01-17T14:58:00.694Z,68.94
2023-01-17T15:00:30.501Z,71.47
2023-01-17T15:02:59.386Z,67.90
2023-01-17T15:05:28.525Z,69.87
2023-01-17T15:07:57.847Z,68.51
2023-01-17T15:10:31.184Z,68.90
2023-01-17T15:13:06.760Z,68.92
2023-01-17T15:15:37.281Z,70.28
2023-01-17T15:18:26.932Z,69.15
2023-01-17T15:21:01.442Z,70.94
2023-01-17T15:23:36.287Z,70.75
2023-01-17T15:26:04.590Z,72.16
2023-01-17T15:28:33.460Z,72.11
2023-01-17T15:31:01.861Z,72.09
2023-01-17T15:33:32.102Z,72.21
2023-01-17T15:36:04.793Z,70.21
2023-01-17T15:38:38.837Z,70.75
2023-01-17T15:41:17.019Z,69.95
2023-01-17T15:43:45.157Z,71.02
2023-01-17T15:46:23.464Z,70.57
2023-01-17T15:48:51.534Z,71.77
2023-01-17T15:51:37.285Z,73.26
2023-01-17T15:54:31.150Z,72.60
2023-01-17T15:57:19.304Z,74.45
2023-01-17T15:59:51.722Z,73.21
2023-01-17T16:02:47.228Z,75.93
2023-01-17T16:05:23.471Z,75.26
2023-01-17T16:07:52.378Z,75.46
2023-01-17T16:10:20.352Z,75.67
2023-01-17T16:12:48.799Z,76.06
2023-01-17T16:15:18.347Z,75.13
2023-01-17T16:17:51.586Z,75.54
2023-01-17T16:20:26.066Z,77.08
2023-01-17T16:22:53.429Z,79.87
2023-01-17T16:25:22.832Z,80.18
2023-01-17T16:27:51.489Z,80.91
2023-01-17T16:30:21.180Z,81.50
2023-01-17T16:32:49.200Z,81.44
2023-01-17T16:35:22.553Z,81.71
2023-01-17T16:37:51.873Z,81.58
2023-01-17T16:40:25.243Z,83.12
2023-01-17T16:42:52.768Z,81.71
2023-01-17T16:45:19.474Z,83.51
2023-01-17T16:47:47.837Z,84.27
2023-01-17T16:50:17.282Z,83.31
2023-01-17T16:52:44.300Z,81.65
2023-01-17T16:55:13.976Z,83.50
2023-01-17T16:57:41.673Z,83.94
2023-01-17T17:00:12.047Z,85.18
2023-01-17T17:02:39.326Z,85.50
2023-01-17T17:05:10.086Z,85.30
2023-01-17T17:07:42.825Z,84.57
2023-01-17T17:10:15.503Z,85.47
2023-01-17T17:12:42.987Z,85.59
2023-01-17T17:15:11.911Z,85.35
2023-01-17T17:17:40.941Z,85.40
2023-01-17T17:20:13.996Z,86.51
2023-01-17T17:22:42.966Z,85.09
2023-01-17T17:25:11.987Z,86.01
2023-01-17T17:27:39.197Z,85.75
2023-01-17T17:30:06.556Z,85.58
2023-01-17T17:32:33.731Z,86.05
2023-01-17T17:35:00.532Z,84.13
2023-01-17T17:37:30.348Z,83.27
2023-01-17T17:39:57.372Z,81.87
2023-01-17T17:42:24.025Z,81.85
2023-01-17T17:44:50.776Z,82.89
2023-01-17T17:47:17.867Z,82.17
2023-01-17T17:49:44.495Z,81.44
2023-01-17T17:52:12.830Z,82.50
2023-01-17T17:54:39.554Z,83.53
2023-01-17T17:57:06.525Z,84.06
2023-01-17T17:59:33.714Z,84.26
2023-01-17T18:02:00.305Z,84.02
2023-01-17T18:04:27.172Z,84.26
2023-01-17T18:06:57.883Z,86.66
2023-01-17T18:09:24.602Z,84.10
2023-01-17T18:11:51.185Z,83.55
2023-01-17T18:14:20.844Z,84.40
2023-01-17T18:16:48.078Z,84.80
2023-01-17T18:19:25.796Z,85.66
2023-01-17T18:21:53.435Z,85.87
2023-01-17T18:24:22.667Z,87.16
2023-01-17T18:26:52.257Z,86.43
2023-01-17T18:29:21.104Z,86.20
2023-01-17T18:31:52.614Z,86.95
2023-01-17T18:34:23.689Z,86.99
2023-01-17T18:36:51.741Z,86.98
2023-01-17T18:39:22.847Z,87.60
2023-01-17T18:41:50.091Z,88.74
2023-01-17T18:44:18.398Z,87.09
2023-01-17T18:46:47.855Z,88.01
2023-01-17T18:49:19.247Z,86.99
2023-01-17T18:51:50.208Z,87.76
2023-01-17T18:54:18.147Z,87.80
2023-01-17T18:56:45.308Z,87.72
2023-01-17T18:59:14.019Z,88.23
2023-01-17T19:01:44.532Z,87.47
2023-01-17T19:04:13.576Z,87.32
2023-01-17T19:06:43.944Z,86.75
2023-01-17T19:09:12.771Z,87.72
2023-01-17T19:11:40.087Z,88.26
2023-01-17T19:14:07.315Z,87.84
2023-01-17T19:16:35.616Z,87.31
2023-01-17T19:19:05.312Z,87.43
2023-01-17T19:21:32.531Z,89.03
2023-01-17T19:23:59.487Z,89.09
2023-01-17T19:26:27.314Z,88.53
2023-01-17T19:28:56.100Z,88.94
2023-01-17T19:31:28.203Z,89.19
2023-01-17T19:33:59.312Z,88.89
2023-01-17T19:36:37.292Z,90.07
2023-01-17T19:39:06.686Z,88.80
2023-01-17T19:41:35.991Z,89.34
2023-01-17T19:44:07.117Z,88.55
2023-01-17T19:46:35.033Z,88.68
2023-01-17T19:49:02.346Z,88.34
2023-01-17T19:51:29.127Z,88.61
2023-01-17T19:53:58.849Z,89.09
2023-01-17T19:56:26.395Z,88.33
2023-01-17T19:58:54.117Z,88.56
2023-01-17T20:01:24.541Z,89.07
2023-01-17T20:03:57.614Z,90.08
2023-01-17T20:06:27.579Z,89.32
2023-01-17T20:08:54.454Z,89.28
2023-01-17T20:11:23.415Z,88.81
2023-01-17T20:13:55.990Z,88.94
2023-01-17T20:16:23.933Z,89.96
2023-01-17T20:18:51.280Z,88.88
2023-01-17T20:21:24.321Z,89.26
2023-01-17T20:23:52.045Z,89.60
2023-01-17T20:26:22.098Z,89.47
2023-01-17T20:28:51.432Z,89.39
2023-01-17T20:31:21.006Z,89.48
2023-01-17T20:33:50.423Z,89.69
2023-01-17T20:36:18.670Z,90.26
2023-01-17T20:38:45.867Z,88.44
2023-01-17T20:41:46.028Z,88.45
2023-01-17T20:44:15.266Z,88.50
2023-01-17T20:46:42.950Z,89.58
2023-01-17T20:49:16.483Z,90.25
2023-01-17T20:51:44.774Z,89.17
2023-01-17T20:54:17.679Z,90.00
2023-01-17T20:56:47.247Z,88.73
2023-01-17T20:59:17.623Z,89.74
2023-01-17T21:01:44.391Z,88.97
2023-01-17T21:04:11.262Z,89.40
2023-01-17T21:06:39.764Z,88.85
2023-01-17T21:09:10.891Z,89.19
2023-01-17T21:11:38.374Z,88.44
2023-01-17T21:14:05.859Z,89.06
2023-01-17T21:16:34.082Z,88.53
2023-01-17T21:19:01.470Z,88.52
2023-01-17T21:21:29.180Z,89.20
2023-01-17T21:23:58.208Z,89.18
2023-01-17T21:26:26.866Z,89.19
2023-01-17T21:28:54.542Z,89.72
2023-01-17T21:31:27.351Z,89.45
2023-01-17T21:34:00.230Z,89.01
2023-01-17T21:36:29.432Z,89.39
2023-01-17T21:38:58.602Z,89.98
2023-01-17T21:41:31.313Z,89.72
2023-01-17T21:44:02.810Z,88.26
2023-01-17T21:46:30.111Z,89.03
2023-01-17T21:48:57.527Z,89.38
2023-01-17T21:51:24.907Z,90.08
2023-01-17T21:53:51.563Z,89.45
2023-01-17T21:56:36.689Z,89.70
2023-01-17T21:59:03.600Z,88.69
2023-01-17T22:01:32.902Z,90.27
2023-01-17T22:04:03.729Z,89.57
2023-01-17T22:06:32.676Z,89.50
2023-01-17T22:08:59.210Z,89.85
2023-01-17T22:11:27.149Z,89.82
2023-01-17T22:13:54.238Z,90.50
2023-01-17T22:16:25.550Z,90.44
2023-01-17T22:18:52.110Z,90.70
2023-01-17T22:21:20.243Z,90.46
2023-01-17T22:23:54.715Z,91.13
2023-01-17T22:26:23.648Z,90.82
2023-01-17T22:28:50.381Z,90.27
2023-01-17T22:31:20.863Z,90.48
2023-01-17T22:33:56.310Z,90.38
2023-01-17T22:36:23.717Z,91.02
2023-01-17T22:38:50.544Z,90.54
2023-01-17T22:41:20.991Z,89.97
2023-01-17T22:43:50.334Z,91.25
2023-01-17T22:46:19.862Z,91.33
2023-01-17T22:48:47.242Z,90.74
2023-01-17T22:51:16.154Z,91.72
2023-01-17T22:53:48.182Z,91.10
2023-01-17T22:56:17.686Z,91.86
2023-01-17T22:58:45.013Z,91.08
2023-01-17T23:01:14.645Z,91.64
2023-01-17T23:03:41.963Z,92.36
2023-01-17T23:06:16.085Z,91.52
2023-01-17T23:08:45.058Z,91.85
2023-01-17T23:11:39.086Z,91.36
2023-01-17T23:14:09.394Z,91.34
2023-01-17T23:16:56.404Z,90.57
2023-01-17T23:19:23.590Z,90.43
2023-01-17T23:22:14.303Z,90.97
2023-01-17T23:24:43.407Z,90.75
2023-01-17T23:27:30.483Z,90.85
2023-01-17T23:29:57.403Z,91.05
2023-01-17T23:32:23.927Z,90.37
2023-01-17T23:34:50.694Z,91.56
2023-01-17T23:37:17.349Z,91.12
2023-01-17T23:39:44.351Z,91.48
2023-01-17T23:42:30.017Z,91.45
2023-01-17T23:44:56.484Z,91.85
2023-01-17T23:47:23.053Z,90.99
2023-01-17T23:49:50.266Z,91.05
2023-01-17T23:52:16.685Z,90.45
2023-01-17T23:54:43.329Z,90.38
2023-01-17T23:57:09.989Z,90.50
2023-01-17T23:59:36.654Z,90.21
